createdAt,value
2022-10-04T00:01:10.561Z,13.77
2022-10-04T00:03:49.806Z,12.07
2022-10-04T00:06:25.625Z,16.23
2022-10-04T00:09:01.445Z,15.05
2022-10-04T00:11:34.233Z,13.83
2022-10-04T00:14:10.031Z,13.83
2022-10-04T00:16:41.934Z,14.00
2022-10-04T00:19:23.770Z,17.67
2022-10-04T00:21:56.620Z,18.60
2022-10-04T00:24:31.545Z,23.77
2022-10-04T00:27:19.033Z,15.20
2022-10-04T00:30:06.919Z,18.37
2022-10-04T00:32:48.963Z,11.97
2022-10-04T00:35:27.450Z,17.25
2022-10-04T00:38:18.037Z,15.73
2022-10-04T00:40:55.177Z,17.70
2022-10-04T00:43:33.910Z,15.40
2022-10-04T00:46:12.317Z,16.67
2022-10-04T00:48:47.746Z,19.47
2022-10-04T00:51:46.763Z,13.37
2022-10-04T00:54:22.446Z,15.33
2022-10-04T00:56:55.225Z,16.62
2022-10-04T00:59:34.048Z,16.37
2022-10-04T01:02:09.742Z,23.83
2022-10-04T01:04:42.270Z,27.20
2022-10-04T01:07:15.056Z,17.47
2022-10-04T01:09:55.985Z,16.50
2022-10-04T01:12:43.787Z,18.67
2022-10-04T01:15:19.133Z,15.23
2022-10-04T01:18:13.285Z,13.50
2022-10-04T01:20:51.892Z,16.17
2022-10-04T01:23:45.625Z,21.50
2022-10-04T01:26:33.384Z,15.03
2022-10-04T01:29:18.146Z,18.70
2022-10-04T01:31:53.867Z,17.40
2022-10-04T01:34:26.734Z,19.12
2022-10-04T01:37:01.190Z,17.77
2022-10-04T01:39:31.079Z,19.10
2022-10-04T01:42:15.767Z,19.33
2022-10-04T01:44:55.337Z,22.00
2022-10-04T01:47:31.185Z,16.43
2022-10-04T01:50:07.563Z,22.10
2022-10-04T01:52:42.578Z,18.20
2022-10-04T01:55:17.827Z,18.92
2022-10-04T01:57:53.311Z,15.90
2022-10-04T02:00:24.534Z,15.17
2022-10-04T02:03:03.511Z,17.40
2022-10-04T02:05:40.132Z,19.93
2022-10-04T02:08:16.231Z,14.30
2022-10-04T02:10:48.968Z,17.07
2022-10-04T02:13:19.353Z,22.07
2022-10-04T02:15:50.556Z,18.97
2022-10-04T02:18:22.781Z,17.90
2022-10-04T02:20:55.037Z,17.23
2022-10-04T02:23:26.171Z,23.30
2022-10-04T02:25:55.985Z,20.23
2022-10-04T02:28:25.756Z,17.15
2022-10-04T02:31:13.456Z,18.70
2022-10-04T02:33:45.667Z,18.20
2022-10-04T02:36:16.557Z,14.60
2022-10-04T02:38:52.625Z,17.82
2022-10-04T02:41:27.634Z,20.60
2022-10-04T02:44:12.619Z,20.30
2022-10-04T02:46:45.507Z,16.33
2022-10-04T02:49:23.962Z,17.75
2022-10-04T02:52:08.576Z,14.53
2022-10-04T02:54:41.676Z,21.93
2022-10-04T02:57:22.872Z,19.97
2022-10-04T02:59:54.598Z,19.50
2022-10-04T03:02:31.832Z,22.47
2022-10-04T03:05:14.096Z,24.87
2022-10-04T03:07:45.057Z,18.42
2022-10-04T03:10:15.165Z,22.22
2022-10-04T03:12:45.332Z,19.60
2022-10-04T03:15:15.523Z,18.10
2022-10-04T03:17:45.835Z,17.37
2022-10-04T03:20:20.476Z,14.60
2022-10-04T03:22:55.366Z,21.87
2022-10-04T03:25:31.004Z,20.68
2022-10-04T03:28:03.546Z,18.73
2022-10-04T03:30:35.617Z,16.55
2022-10-04T03:33:06.935Z,22.47
2022-10-04T03:35:40.305Z,21.20
2022-10-04T03:38:12.336Z,20.73
2022-10-04T03:40:45.435Z,17.95
2022-10-04T03:43:15.742Z,22.70
2022-10-04T03:45:45.718Z,26.53
2022-10-04T03:48:19.183Z,26.56
2022-10-04T03:50:50.264Z,29.83
2022-10-04T03:53:43.849Z,21.65
2022-10-04T03:56:21.376Z,22.85
2022-10-04T04:01:41.823Z,24.30
2022-10-04T04:04:18.171Z,25.87
2022-10-04T04:07:05.589Z,22.80
2022-10-04T04:09:44.152Z,24.45
2022-10-04T04:12:21.228Z,26.30
2022-10-04T04:14:53.268Z,25.32
2022-10-04T04:17:32.128Z,23.30
2022-10-04T04:20:07.599Z,24.00
2022-10-04T04:22:37.745Z,25.07
2022-10-04T04:25:12.016Z,23.28
2022-10-04T04:27:44.709Z,24.45
2022-10-04T04:30:17.944Z,30.30
2022-10-04T04:32:50.738Z,28.53
2022-10-04T04:35:26.488Z,22.42
2022-10-04T04:38:14.102Z,27.97
2022-10-04T04:40:44.493Z,23.73
2022-10-04T04:43:17.761Z,22.65
2022-10-04T04:46:02.910Z,24.63
2022-10-04T04:48:23.890Z,31.50
2022-10-04T04:50:58.821Z,28.43
2022-10-04T04:53:30.512Z,30.60
2022-10-04T04:56:04.890Z,24.17
2022-10-04T04:58:41.421Z,27.27
2022-10-04T05:01:26.132Z,29.40
2022-10-04T05:04:14.012Z,21.87
2022-10-04T05:07:01.367Z,27.87
2022-10-04T05:09:39.072Z,27.63
2022-10-04T05:12:22.312Z,24.23
2022-10-04T05:14:54.126Z,31.13
2022-10-04T05:17:26.682Z,25.30
2022-10-04T05:19:58.876Z,25.05
2022-10-04T05:22:29.626Z,20.90
2022-10-04T05:27:40.204Z,27.75
2022-10-04T05:30:27.223Z,25.03
2022-10-04T05:35:32.101Z,21.42
2022-10-04T05:38:10.630Z,28.67
2022-10-04T05:41:07.149Z,26.27
2022-10-04T05:43:48.099Z,26.52
2022-10-04T05:46:27.089Z,28.43
2022-10-04T05:49:03.106Z,29.72
2022-10-04T05:51:38.260Z,26.37
2022-10-04T05:54:10.926Z,26.45
2022-10-04T05:56:59.967Z,26.40
2022-10-04T05:59:33.061Z,26.73
2022-10-04T06:02:36.971Z,23.97
2022-10-04T06:05:29.179Z,30.50
2022-10-04T06:08:08.560Z,21.07
2022-10-04T06:11:02.215Z,29.77
2022-10-04T06:13:51.720Z,23.32
2022-10-04T06:19:13.203Z,27.20
2022-10-04T06:22:06.487Z,23.70
2022-10-04T06:24:39.552Z,25.52
2022-10-04T06:27:15.635Z,21.93
2022-10-04T06:29:48.438Z,22.35
2022-10-04T06:32:26.632Z,21.53
2022-10-04T06:35:17.514Z,25.30
2022-10-04T06:38:07.125Z,22.05
2022-10-04T06:41:02.051Z,24.53
2022-10-04T06:43:50.261Z,21.80
2022-10-04T06:46:42.407Z,19.10
2022-10-04T06:49:29.976Z,21.25
2022-10-04T06:52:17.761Z,21.07
2022-10-04T06:55:23.467Z,20.83
2022-10-04T06:58:08.713Z,19.77
2022-10-04T07:00:50.474Z,18.13
2022-10-04T07:03:26.467Z,24.55
2022-10-04T07:06:07.649Z,14.20
2022-10-04T07:08:56.598Z,21.50
2022-10-04T07:11:32.669Z,18.40
2022-10-04T07:14:08.321Z,16.10
2022-10-04T07:16:49.892Z,18.30
2022-10-04T07:19:26.218Z,15.27
2022-10-04T07:22:12.178Z,17.83
2022-10-04T07:24:53.828Z,13.95
2022-10-04T07:27:26.625Z,16.97
2022-10-04T07:29:58.907Z,16.73
2022-10-04T07:32:34.424Z,16.63
2022-10-04T07:35:06.913Z,13.17
2022-10-04T07:37:39.762Z,17.07
2022-10-04T07:40:12.565Z,16.77
2022-10-04T07:42:45.331Z,18.30
2022-10-04T07:45:30.319Z,13.70
2022-10-04T07:48:19.127Z,14.07
2022-10-04T07:51:17.161Z,10.47
2022-10-04T07:54:07.747Z,13.43
2022-10-04T07:56:46.120Z,12.23
2022-10-04T07:59:32.356Z,13.70
2022-10-04T08:02:13.986Z,13.17
2022-10-04T08:04:46.591Z,17.65
2022-10-04T08:07:22.515Z,12.95
2022-10-04T08:10:13.362Z,12.60
2022-10-04T08:12:55.062Z,16.83
2022-10-04T08:15:41.977Z,13.40
2022-10-04T08:18:19.654Z,16.48
2022-10-04T08:21:04.009Z,11.47
2022-10-04T08:23:36.780Z,16.13
2022-10-04T08:26:29.987Z,16.60
2022-10-04T08:29:26.109Z,12.37
2022-10-04T08:32:19.232Z,13.73
2022-10-04T08:35:04.123Z,18.77
2022-10-04T08:38:05.212Z,13.07
2022-10-04T08:40:52.297Z,12.25
2022-10-04T08:46:24.262Z,13.05
2022-10-04T08:49:08.873Z,13.47
2022-10-04T08:52:02.647Z,15.40
2022-10-04T08:55:06.748Z,9.63
2022-10-04T08:58:10.969Z,14.87
2022-10-04T09:00:58.149Z,13.47
2022-10-04T09:03:45.798Z,15.67
2022-10-04T09:06:37.031Z,13.44
2022-10-04T09:09:34.859Z,17.07
2022-10-04T09:12:24.345Z,10.13
2022-10-04T09:15:02.630Z,12.53
2022-10-04T09:18:05.374Z,11.33
2022-10-04T09:20:39.600Z,12.28
2022-10-04T09:23:29.294Z,12.60
2022-10-04T09:26:10.821Z,13.80
2022-10-04T09:29:05.508Z,9.65
2022-10-04T09:31:57.601Z,11.37
2022-10-04T09:34:55.717Z,13.83
2022-10-04T09:37:31.236Z,11.40
2022-10-04T09:40:10.789Z,9.53
2022-10-04T09:43:01.750Z,10.70
2022-10-04T09:45:50.820Z,12.00
2022-10-04T09:48:44.095Z,14.43
2022-10-04T09:51:24.623Z,13.93
2022-10-04T09:54:30.454Z,11.33
2022-10-04T09:57:06.666Z,11.93
2022-10-04T09:59:49.986Z,13.03
2022-10-04T10:02:48.247Z,11.85
2022-10-04T10:05:36.858Z,11.00
2022-10-04T10:08:18.238Z,12.37
2022-10-04T10:11:35.636Z,14.83
2022-10-04T10:14:35.930Z,13.03
2022-10-04T10:17:16.007Z,9.73
2022-10-04T10:20:06.290Z,12.95
2022-10-04T10:23:07.259Z,11.17
2022-10-04T10:25:42.558Z,9.50
2022-10-04T10:28:35.366Z,8.40
2022-10-04T10:31:24.681Z,12.03
2022-10-04T10:34:16.520Z,10.63
2022-10-04T10:37:11.379Z,12.20
2022-10-04T10:39:50.038Z,12.27
2022-10-04T10:42:39.025Z,19.50
2022-10-04T10:45:32.393Z,10.65
2022-10-04T10:48:05.262Z,9.73
2022-10-04T10:51:00.313Z,11.97
2022-10-04T10:53:48.162Z,11.27
2022-10-04T10:56:36.754Z,9.37
2022-10-04T10:59:27.433Z,12.70
2022-10-04T11:02:42.253Z,8.77
2022-10-04T11:05:04.880Z,8.90
2022-10-04T11:07:52.443Z,11.30
2022-10-04T11:10:40.001Z,9.03
2022-10-04T11:16:26.889Z,12.35
2022-10-04T11:19:23.956Z,9.47
2022-10-04T11:22:16.339Z,6.35
2022-10-04T11:25:07.086Z,9.30
2022-10-04T11:27:58.186Z,9.30
2022-10-04T11:30:49.137Z,9.63
2022-10-04T11:33:38.969Z,8.25
2022-10-04T11:36:41.804Z,7.26
2022-10-04T11:39:17.326Z,5.53
2022-10-04T11:41:50.331Z,10.43
2022-10-04T11:44:37.712Z,5.87
2022-10-04T11:47:13.225Z,6.07
2022-10-04T11:50:08.595Z,8.73
2022-10-04T11:53:08.365Z,8.73
2022-10-04T11:55:52.004Z,5.92
2022-10-04T11:58:41.908Z,10.23
2022-10-04T12:01:40.833Z,8.80
2022-10-04T12:04:43.346Z,8.20
2022-10-04T12:07:28.020Z,8.43
2022-10-04T12:10:03.893Z,7.97
2022-10-04T12:12:39.244Z,8.68
2022-10-04T12:15:11.898Z,5.67
2022-10-04T12:18:12.715Z,5.33
2022-10-04T12:21:12.562Z,7.33
2022-10-04T12:24:04.589Z,10.23
2022-10-04T12:26:47.763Z,3.03
2022-10-04T12:29:28.756Z,6.77
2022-10-04T12:32:13.426Z,6.77
2022-10-04T12:35:07.498Z,4.67
2022-10-04T12:37:52.112Z,7.77
2022-10-04T12:43:22.882Z,7.35
2022-10-04T12:46:04.342Z,8.10
2022-10-04T12:48:47.419Z,7.53
2022-10-04T12:51:39.466Z,8.77
2022-10-04T12:54:33.159Z,5.50
2022-10-04T12:57:22.916Z,6.63
2022-10-04T12:59:58.145Z,9.73
2022-10-04T13:02:47.598Z,7.05
2022-10-04T13:05:23.109Z,5.60
2022-10-04T13:08:04.869Z,4.90
2022-10-04T13:10:47.749Z,4.92
2022-10-04T13:13:42.248Z,11.40
2022-10-04T13:19:09.846Z,6.05
2022-10-04T13:22:03.352Z,9.70
2022-10-04T13:24:56.798Z,5.93
2022-10-04T13:27:50.206Z,10.20
2022-10-04T13:30:31.289Z,4.53
2022-10-04T13:33:04.138Z,9.37
2022-10-04T13:35:42.340Z,6.10
2022-10-04T13:38:28.158Z,3.47
2022-10-04T13:41:17.000Z,8.90
2022-10-04T13:44:15.308Z,8.33
2022-10-04T13:47:15.533Z,4.00
2022-10-04T13:50:04.567Z,6.77
2022-10-04T13:53:11.453Z,6.87
2022-10-04T13:56:20.473Z,6.35
2022-10-04T13:59:21.275Z,6.65
2022-10-04T14:02:13.510Z,5.40
2022-10-04T14:05:10.337Z,5.75
2022-10-04T14:07:52.886Z,4.90
2022-10-04T14:10:40.459Z,4.00
2022-10-04T14:13:37.922Z,8.20
2022-10-04T14:16:47.362Z,6.22
2022-10-04T14:19:36.226Z,7.97
2022-10-04T14:22:14.559Z,7.45
2022-10-04T14:24:47.435Z,7.43
2022-10-04T14:27:23.106Z,5.77
2022-10-04T14:29:58.211Z,7.43
2022-10-04T14:32:42.622Z,8.95
2022-10-04T14:35:18.106Z,6.72
2022-10-04T14:38:06.694Z,7.20
2022-10-04T14:40:48.290Z,5.53
2022-10-04T14:43:23.881Z,5.67
2022-10-04T14:46:30.814Z,6.20
2022-10-04T14:49:12.303Z,9.43
2022-10-04T14:51:50.867Z,6.23
2022-10-04T14:54:26.361Z,6.97
2022-10-04T14:57:05.318Z,10.18
2022-10-04T14:59:49.225Z,4.40
2022-10-04T15:02:31.546Z,5.87
2022-10-04T15:05:16.320Z,6.57
2022-10-04T15:07:51.884Z,6.83
2022-10-04T15:10:24.754Z,10.27
2022-10-04T15:13:12.757Z,8.17
2022-10-04T15:16:13.964Z,8.85
2022-10-04T15:18:52.526Z,4.93
2022-10-04T15:21:41.172Z,6.25
2022-10-04T15:24:27.365Z,5.87
2022-10-04T15:27:14.742Z,7.87
2022-10-04T15:30:05.364Z,5.33
2022-10-04T15:32:49.614Z,5.23
2022-10-04T15:35:28.087Z,4.72
2022-10-04T15:38:04.331Z,4.87
2022-10-04T15:40:42.806Z,6.00
2022-10-04T15:43:33.488Z,10.93
2022-10-04T15:46:26.768Z,8.83
2022-10-04T15:49:18.554Z,7.20
2022-10-04T15:52:09.638Z,9.63
2022-10-04T15:54:52.300Z,5.70
2022-10-04T15:57:51.924Z,9.60
2022-10-04T16:00:32.049Z,6.55
2022-10-04T16:03:17.014Z,8.57
2022-10-04T16:06:15.059Z,5.87
2022-10-04T16:08:53.339Z,7.10
2022-10-04T16:11:37.775Z,7.53
2022-10-04T16:14:36.644Z,7.20
2022-10-04T16:17:23.964Z,9.10
2022-10-04T16:20:19.853Z,11.10
2022-10-04T16:23:25.435Z,9.53
2022-10-04T16:25:58.174Z,7.20
2022-10-04T16:28:39.734Z,6.55
2022-10-04T16:31:44.084Z,8.65
2022-10-04T16:34:44.681Z,6.45
2022-10-04T16:37:17.213Z,8.20
2022-10-04T16:40:05.797Z,6.40
2022-10-04T16:42:46.938Z,13.45
2022-10-04T16:45:54.106Z,7.08
2022-10-04T16:48:35.256Z,7.23
2022-10-04T16:51:22.971Z,7.47
2022-10-04T16:54:16.410Z,10.70
2022-10-04T16:56:56.808Z,7.47
2022-10-04T16:59:44.133Z,9.53
2022-10-04T17:02:19.773Z,8.43
2022-10-04T17:04:54.158Z,10.63
2022-10-04T17:07:35.633Z,9.50
2022-10-04T17:10:38.302Z,10.03
2022-10-04T17:13:11.134Z,9.70
2022-10-04T17:15:47.090Z,8.57
2022-10-04T17:21:11.204Z,5.60
2022-10-04T17:23:52.469Z,7.40
2022-10-04T17:26:33.496Z,8.27
2022-10-04T17:29:18.347Z,8.37
2022-10-04T17:31:53.884Z,10.50
2022-10-04T17:36:57.231Z,7.70
2022-10-04T17:39:41.903Z,10.47
2022-10-04T17:42:36.115Z,9.95
2022-10-04T17:45:37.672Z,9.98
2022-10-04T17:48:48.371Z,12.98
2022-10-04T17:52:01.404Z,7.77
2022-10-04T17:54:51.775Z,10.10
2022-10-04T17:57:30.627Z,9.17
2022-10-04T18:00:21.232Z,13.40
2022-10-04T18:03:11.671Z,8.40
2022-10-04T18:05:47.032Z,9.25
2022-10-04T18:08:22.357Z,7.87
2022-10-04T18:11:00.529Z,7.07
2022-10-04T18:13:33.601Z,8.58
2022-10-04T18:16:27.153Z,12.00
2022-10-04T18:18:57.622Z,10.47
2022-10-04T18:21:32.191Z,10.70
2022-10-04T18:24:05.152Z,11.20
2022-10-04T18:26:34.955Z,9.07
2022-10-04T18:29:08.788Z,10.30
2022-10-04T18:31:40.695Z,11.97
2022-10-04T18:34:16.482Z,13.87
2022-10-04T18:36:58.223Z,15.43
2022-10-04T18:39:28.113Z,14.57
2022-10-04T18:42:23.390Z,13.53
2022-10-04T18:45:04.493Z,17.80
2022-10-04T18:47:38.031Z,14.03
2022-10-04T18:50:35.226Z,24.47
2022-10-04T18:53:16.853Z,18.43
2022-10-04T18:56:04.477Z,20.90
2022-10-04T18:59:20.323Z,17.00
2022-10-04T19:02:17.134Z,15.83
2022-10-04T19:04:49.778Z,18.43
2022-10-04T19:07:25.290Z,16.20
2022-10-04T19:10:14.148Z,17.80
2022-10-04T19:12:58.778Z,15.77
2022-10-04T19:15:49.214Z,14.60
2022-10-04T19:18:40.090Z,12.20
2022-10-04T19:21:15.843Z,12.95
2022-10-04T19:23:54.072Z,10.40
2022-10-04T19:26:43.408Z,14.33
2022-10-04T19:29:25.078Z,12.43
2022-10-04T19:32:12.204Z,11.33
2022-10-04T19:34:53.899Z,10.40
2022-10-04T19:37:46.489Z,13.40
2022-10-04T19:40:19.173Z,9.30
2022-10-04T19:42:54.439Z,11.33
2022-10-04T19:45:55.461Z,12.50
2022-10-04T19:48:27.501Z,12.85
2022-10-04T19:56:20.671Z,14.97
2022-10-04T19:59:02.383Z,10.70
2022-10-04T20:01:33.442Z,12.83
2022-10-04T20:04:22.718Z,7.53
2022-10-04T20:06:58.565Z,12.83
2022-10-04T20:09:47.992Z,11.48
2022-10-04T20:12:32.838Z,13.95
2022-10-04T20:15:31.212Z,11.03
2022-10-04T20:18:02.787Z,12.13
2022-10-04T20:20:44.249Z,9.75
2022-10-04T20:23:17.031Z,8.57
2022-10-04T20:25:52.517Z,10.57
2022-10-04T20:28:33.166Z,9.60
2022-10-04T20:31:05.403Z,13.60
2022-10-04T20:33:46.855Z,12.33
2022-10-04T20:36:34.581Z,9.95
2022-10-04T20:39:06.568Z,8.05
2022-10-04T20:41:56.929Z,9.80
2022-10-04T20:44:51.788Z,8.33
2022-10-04T20:47:30.372Z,8.73
2022-10-04T20:50:01.915Z,9.73
2022-10-04T20:52:34.535Z,8.00
2022-10-04T20:55:07.601Z,10.82
2022-10-04T20:57:41.358Z,9.10
2022-10-04T21:00:25.666Z,11.70
2022-10-04T21:03:18.018Z,9.17
2022-10-04T21:06:08.490Z,12.87
2022-10-04T21:08:39.530Z,14.20
2022-10-04T21:11:22.161Z,9.30
2022-10-04T21:13:57.313Z,8.77
2022-10-04T21:16:48.462Z,10.80
2022-10-04T21:19:38.657Z,9.30
2022-10-04T21:22:11.474Z,8.27
2022-10-04T21:24:43.640Z,7.03
2022-10-04T21:27:33.004Z,11.08
2022-10-04T21:30:05.688Z,7.37
2022-10-04T21:32:37.582Z,10.50
2022-10-04T21:35:10.290Z,9.40
2022-10-04T21:37:40.311Z,7.27
2022-10-04T21:40:10.362Z,7.40
2022-10-04T21:42:40.129Z,14.10
2022-10-04T21:45:09.905Z,10.10
2022-10-04T21:47:39.692Z,10.73
2022-10-04T21:50:11.166Z,8.25
2022-10-04T21:52:40.910Z,9.00
2022-10-04T21:55:10.829Z,7.90
2022-10-04T21:57:40.620Z,10.10
2022-10-04T22:00:12.599Z,11.98
2022-10-04T22:02:42.269Z,7.85
2022-10-04T22:05:11.697Z,10.13
2022-10-04T22:07:41.442Z,7.93
2022-10-04T22:10:11.543Z,9.58
2022-10-04T22:12:41.040Z,10.40
2022-10-04T22:15:11.079Z,11.33
2022-10-04T22:17:40.805Z,9.87
2022-10-04T22:20:11.536Z,8.58
2022-10-04T22:22:41.285Z,10.47
2022-10-04T22:25:19.684Z,11.70
2022-10-04T22:27:51.842Z,7.90
2022-10-04T22:30:30.080Z,11.87
2022-10-04T22:33:02.297Z,8.57
2022-10-04T22:35:34.135Z,10.83
2022-10-04T22:38:08.548Z,11.12
2022-10-04T22:40:38.298Z,12.50
2022-10-04T22:43:10.822Z,13.00
2022-10-04T22:45:42.359Z,7.13
2022-10-04T22:48:14.974Z,14.83
2022-10-04T22:50:44.497Z,11.10
2022-10-04T22:53:22.942Z,11.48
2022-10-04T22:55:55.149Z,8.43
2022-10-04T22:58:24.654Z,10.67
2022-10-04T23:00:55.935Z,8.30
2022-10-04T23:03:34.478Z,7.87
2022-10-04T23:06:07.867Z,11.10
2022-10-04T23:08:37.348Z,10.20
2022-10-04T23:11:07.467Z,11.97
2022-10-04T23:13:37.631Z,14.00
2022-10-04T23:16:20.156Z,14.83
2022-10-04T23:18:50.184Z,14.80
2022-10-04T23:21:23.179Z,10.72
2022-10-04T23:23:54.330Z,13.58
2022-10-04T23:26:26.605Z,10.75
2022-10-04T23:28:56.340Z,9.17
2022-10-04T23:31:27.855Z,9.00
2022-10-04T23:33:58.408Z,10.27
2022-10-04T23:36:27.848Z,15.30
2022-10-04T23:39:00.640Z,9.73
2022-10-04T23:41:30.457Z,11.30
2022-10-04T23:44:00.380Z,10.77
2022-10-04T23:46:31.576Z,10.47
2022-10-04T23:49:01.318Z,9.23
2022-10-04T23:51:31.154Z,13.10
2022-10-04T23:54:00.895Z,9.43
2022-10-04T23:56:30.907Z,10.97
2022-10-04T23:59:00.708Z,9.00
